Time;durP1;ratioP1;P1;durP2;ratioP2;P2;SDS_P1;SDS_P2;PMS_P1;PMS_P2;Temp;Humidity;BMP_temperature;BMP_pressure;BME280_temperature;BME280_humidity;BME280_pressure;Samples;Min_cycle;Max_cycle;Signal;HPM_P1;HPM_P2
2023/01/19 00:00:10;;;;;;;5.67;3.70;;;11.10;99.90;;;;;;5117668;28;20187;-83
2023/01/19 00:02:36;;;;;;;5.90;4.40;;;11.10;99.90;;;;;;5116803;28;20978;-84
2023/01/19 00:05:03;;;;;;;5.05;4.45;;;11.20;99.90;;;;;;5117923;28;20636;-83
2023/01/19 00:07:30;;;;;;;4.70;3.92;;;11.30;99.90;;;;;;5118194;28;20337;-82
2023/01/19 00:09:56;;;;;;;6.07;5.13;;;11.30;99.90;;;;;;5116545;28;20186;-83
2023/01/19 00:12:22;;;;;;;6.63;4.10;;;11.30;99.90;;;;;;5118213;28;20554;-84
2023/01/19 00:14:47;;;;;;;6.20;5.00;;;11.30;99.90;;;;;;5116542;28;20912;-83
2023/01/19 00:17:13;;;;;;;6.00;4.77;;;11.30;99.90;;;;;;5117610;28;20274;-83
2023/01/19 00:19:39;;;;;;;6.27;4.47;;;11.40;99.90;;;;;;5117597;28;20176;-83
2023/01/19 00:22:05;;;;;;;9.50;5.97;;;11.50;99.90;;;;;;5117901;28;20501;-84
2023/01/19 00:24:31;;;;;;;9.70;6.27;;;11.60;99.90;;;;;;5116332;28;20225;-83
2023/01/19 00:26:56;;;;;;;7.13;5.00;;;11.60;99.90;;;;;;5117934;28;20172;-84
2023/01/19 00:29:22;;;;;;;8.43;6.13;;;11.60;99.90;;;;;;5116142;28;20745;-83
2023/01/19 00:31:49;;;;;;;8.30;6.18;;;11.60;99.90;;;;;;5116123;28;20187;-83
2023/01/19 00:34:15;;;;;;;8.43;4.97;;;11.70;99.90;;;;;;5117358;28;20176;-82
2023/01/19 00:36:41;;;;;;;6.97;4.30;;;11.70;99.90;;;;;;5116102;28;20191;-84
2023/01/19 00:39:07;;;;;;;7.63;5.60;;;11.70;99.90;;;;;;5117209;28;20583;-83
2023/01/19 00:44:16;;;;;;;6.20;4.63;;;11.70;99.90;;;;;;5117418;28;20170;-85
2023/01/19 00:46:42;;;;;;;8.40;5.00;;;11.70;99.90;;;;;;5117456;28;20168;-83
2023/01/19 00:49:08;;;;;;;5.80;4.17;;;11.70;99.90;;;;;;5115662;28;20215;-83
2023/01/19 00:51:33;;;;;;;7.20;4.50;;;11.60;99.90;;;;;;5115907;28;20176;-83
2023/01/19 00:54:03;;;;;;;7.30;4.53;;;11.50;99.90;;;;;;5117206;28;20679;-83
2023/01/19 00:56:30;;;;;;;7.18;5.13;;;11.50;99.90;;;;;;5115661;28;20268;-83
2023/01/19 00:58:55;;;;;;;8.02;5.85;;;11.50;99.90;;;;;;5116926;28;20188;-84
2023/01/19 01:01:22;;;;;;;6.47;5.05;;;11.50;99.90;;;;;;5115821;28;20199;-82
2023/01/19 01:03:48;;;;;;;7.43;5.37;;;11.50;99.90;;;;;;5115497;28;20204;-84
2023/01/19 01:06:13;;;;;;;7.30;5.50;;;11.50;99.90;;;;;;5116792;28;20262;-82
2023/01/19 01:08:39;;;;;;;8.30;5.90;;;11.40;99.90;;;;;;5115333;28;20298;-83
2023/01/19 01:11:05;;;;;;;9.00;6.73;;;11.40;99.90;;;;;;5116744;28;20196;-83
2023/01/19 01:13:31;;;;;;;5.53;4.80;;;11.50;99.90;;;;;;5115317;28;20196;-82
2023/01/19 01:15:56;;;;;;;7.67;5.93;;;11.40;99.90;;;;;;5116694;28;20263;-85
2023/01/19 01:18:23;;;;;;;7.70;6.60;;;11.40;99.90;;;;;;5116454;28;20199;-83
2023/01/19 01:20:48;;;;;;;11.20;7.47;;;11.40;99.90;;;;;;5115206;28;20527;-84
2023/01/19 01:23:14;;;;;;;9.30;5.50;;;11.40;99.90;;;;;;5115160;28;20639;-83
2023/01/19 01:25:41;;;;;;;16.00;10.00;;;11.40;99.90;;;;;;5116632;28;20184;-85
2023/01/19 01:28:07;;;;;;;10.88;6.93;;;11.30;99.90;;;;;;5114980;28;20215;-84
2023/01/19 01:30:39;;;;;;;9.55;7.95;;;11.30;99.90;;;;;;5116354;28;20172;-84
2023/01/19 01:33:06;;;;;;;7.60;5.50;;;11.20;99.90;;;;;;5116234;28;20290;-84
2023/01/19 01:35:32;;;;;;;9.45;8.25;;;11.20;99.90;;;;;;5116569;28;22027;-84
2023/01/19 01:37:59;;;;;;;11.52;9.65;;;11.20;99.90;;;;;;5116132;28;20195;-83
2023/01/19 01:40:25;;;;;;;9.38;7.65;;;11.20;99.90;;;;;;5114879;28;20168;-83
2023/01/19 01:42:51;;;;;;;9.00;6.25;;;11.10;99.90;;;;;;5114714;28;20196;-83
2023/01/19 01:45:39;;;;;;;6.90;5.53;;;11.00;99.90;;;;;;5114662;28;20199;-82
2023/01/19 01:48:18;;;;;;;11.48;8.02;;;11.00;99.90;;;;;;5115808;28;20471;-84
2023/01/19 01:53:36;;;;;;;20.98;14.13;;;11.10;99.90;;;;;;5115757;28;20245;-82
2023/01/19 01:56:08;;;;;;;35.97;21.42;;;11.10;99.90;;;;;;5114364;28;20227;-82
2023/01/19 01:58:36;;;;;;;52.70;29.95;;;11.10;99.90;;;;;;5115725;28;20195;-84
2023/01/19 02:03:47;;;;;;;19.23;12.65;;;11.00;99.90;;;;;;5115005;28;20682;-83
2023/01/19 02:06:13;;;;;;;14.05;9.52;;;10.90;99.90;;;;;;5114259;28;20183;-83
2023/01/19 02:14:15;;;;;;;12.48;9.75;;;10.50;99.90;;;;;;5115798;28;20226;-83
2023/01/19 02:16:41;;;;;;;7.70;6.10;;;10.60;99.90;;;;;;5116139;28;20176;-82
2023/01/19 02:19:11;;;;;;;13.30;8.13;;;10.60;99.90;;;;;;5114129;28;20646;-83
2023/01/19 02:21:37;;;;;;;6.65;5.63;;;10.60;99.90;;;;;;5115589;28;20244;-83
2023/01/19 02:24:02;;;;;;;7.23;5.57;;;10.70;99.90;;;;;;5113967;28;20196;-82
2023/01/19 02:26:38;;;;;;;7.90;5.40;;;10.60;99.90;;;;;;5115342;28;20225;-84
2023/01/19 02:29:08;;;;;;;6.30;5.07;;;10.70;99.90;;;;;;5115334;28;20967;-83
2023/01/19 02:31:36;;;;;;;8.60;6.60;;;10.70;99.90;;;;;;5115262;28;20224;-81
2023/01/19 02:34:02;;;;;;;7.45;6.57;;;10.70;99.90;;;;;;5113682;28;20198;-82
2023/01/19 02:36:54;;;;;;;8.77;5.90;;;10.70;99.90;;;;;;5113793;28;20190;-82
2023/01/19 02:39:29;;;;;;;5.68;5.10;;;10.70;99.90;;;;;;5106167;28;20183;-82
2023/01/19 02:42:01;;;;;;;6.85;5.50;;;10.70;99.90;;;;;;5113990;28;20187;-83
2023/01/19 02:44:29;;;;;;;6.90;5.55;;;10.60;99.90;;;;;;5114867;28;20519;-81
2023/01/19 02:46:56;;;;;;;10.35;5.90;;;10.50;99.90;;;;;;5113586;28;20184;-81
2023/01/19 02:49:22;;;;;;;6.28;5.55;;;10.50;99.90;;;;;;5114617;28;20207;-81
2023/01/19 02:51:48;;;;;;;10.40;6.32;;;10.40;99.90;;;;;;5115013;28;20301;-83
2023/01/19 02:54:44;;;;;;;6.95;6.03;;;10.30;99.90;;;;;;5114675;28;20171;-82
2023/01/19 02:57:28;;;;;;;6.82;6.07;;;10.30;99.90;;;;;;5113523;28;20227;-81
2023/01/19 03:00:12;;;;;;;9.23;6.78;;;10.20;99.90;;;;;;5113282;28;20216;-83
2023/01/19 03:03:00;;;;;;;7.85;5.85;;;10.20;99.90;;;;;;5114495;28;20226;-81
2023/01/19 03:05:53;;;;;;;9.93;6.60;;;10.20;99.90;;;;;;5114643;28;20160;-83
2023/01/19 03:08:26;;;;;;;7.40;6.38;;;10.20;99.90;;;;;;5114895;28;20690;-82
2023/01/19 03:11:08;;;;;;;8.00;5.47;;;10.20;99.90;;;;;;5114820;28;20705;-82
2023/01/19 03:14:09;;;;;;;9.00;6.15;;;10.20;99.90;;;;;;5112805;28;20733;-81
2023/01/19 03:16:42;;;;;;;9.38;5.80;;;10.20;99.90;;;;;;5071571;28;20185;-82
2023/01/19 03:19:18;;;;;;;8.13;5.55;;;10.20;99.90;;;;;;5103165;28;20240;-81
2023/01/19 03:21:48;;;;;;;6.80;6.10;;;10.10;99.90;;;;;;5113280;28;20183;-83
2023/01/19 03:24:16;;;;;;;14.77;7.50;;;10.00;99.90;;;;;;5114243;28;20652;-83
2023/01/19 03:26:51;;;;;;;8.35;6.50;;;9.80;99.90;;;;;;5114554;28;20663;-80
2023/01/19 03:29:20;;;;;;;6.53;5.70;;;9.80;99.90;;;;;;5112951;28;20199;-80
2023/01/19 03:31:49;;;;;;;9.38;5.75;;;9.70;99.90;;;;;;5112989;28;20179;-83
2023/01/19 03:34:17;;;;;;;7.68;5.85;;;9.70;99.90;;;;;;5114198;28;20220;-82
2023/01/19 03:36:47;;;;;;;10.68;6.32;;;9.60;99.90;;;;;;5114403;28;20236;-83
2023/01/19 03:39:19;;;;;;;8.57;6.20;;;9.70;99.90;;;;;;5114215;28;20544;-82
2023/01/19 03:41:48;;;;;;;8.13;6.72;;;9.60;99.90;;;;;;5114411;28;20176;-84
2023/01/19 03:44:15;;;;;;;8.98;6.75;;;9.60;99.90;;;;;;5114121;28;20258;-83
2023/01/19 03:46:41;;;;;;;9.57;6.85;;;9.70;99.90;;;;;;5112850;28;20183;-83
2023/01/19 03:49:08;;;;;;;11.77;8.35;;;9.80;99.90;;;;;;5113901;28;20687;-81
2023/01/19 03:51:37;;;;;;;11.23;9.05;;;9.80;99.90;;;;;;5112799;28;20549;-80
2023/01/19 03:54:04;;;;;;;11.77;8.82;;;9.90;99.90;;;;;;5112691;28;20288;-84
2023/01/19 03:56:30;;;;;;;11.07;9.10;;;9.80;99.90;;;;;;5114650;28;20251;-81
2023/01/19 03:58:56;;;;;;;12.80;8.80;;;9.80;99.90;;;;;;5112651;28;20252;-84
2023/01/19 04:01:22;;;;;;;13.00;10.50;;;9.70;99.90;;;;;;5114068;28;20183;-81
2023/01/19 04:03:49;;;;;;;14.63;10.70;;;9.80;99.90;;;;;;5112517;28;20278;-83
2023/01/19 04:06:15;;;;;;;12.60;10.80;;;9.80;99.90;;;;;;5112609;28;20188;-82
2023/01/19 04:08:41;;;;;;;16.00;11.93;;;9.80;99.90;;;;;;5113635;28;20227;-84
2023/01/19 04:11:07;;;;;;;17.60;12.90;;;9.80;99.90;;;;;;5114166;28;20176;-84
2023/01/19 04:13:33;;;;;;;18.60;14.27;;;9.90;99.90;;;;;;5113845;28;20422;-83
2023/01/19 04:16:00;;;;;;;19.42;13.57;;;9.90;99.90;;;;;;5114034;28;20233;-82
2023/01/19 04:18:31;;;;;;;19.35;14.30;;;9.90;99.90;;;;;;5112408;28;20199;-83
2023/01/19 04:21:01;;;;;;;23.55;16.42;;;9.90;99.90;;;;;;5113881;28;20172;-83
2023/01/19 04:23:27;;;;;;;23.20;14.60;;;10.00;99.90;;;;;;5113811;28;20199;-81
2023/01/19 04:26:01;;;;;;;24.38;16.20;;;9.90;99.90;;;;;;5113613;28;20301;-82
2023/01/19 04:28:27;;;;;;;26.95;16.02;;;10.00;99.90;;;;;;5117411;28;20232;-84
2023/01/19 04:30:53;;;;;;;22.73;14.50;;;9.90;99.90;;;;;;5117638;28;20222;-80
2023/01/19 04:33:19;;;;;;;25.07;17.70;;;9.80;99.90;;;;;;5115966;28;20527;-82
2023/01/19 04:35:46;;;;;;;24.20;16.20;;;9.70;99.90;;;;;;5117301;28;20819;-81
2023/01/19 04:38:12;;;;;;;25.88;17.27;;;9.80;99.90;;;;;;5116092;28;20572;-84
2023/01/19 04:40:38;;;;;;;24.63;16.70;;;9.90;99.90;;;;;;5117172;28;20176;-83
2023/01/19 04:43:03;;;;;;;30.50;19.00;;;9.90;99.90;;;;;;5115904;28;20202;-82
2023/01/19 04:45:29;;;;;;;30.93;19.77;;;10.00;99.90;;;;;;5117229;28;20534;-84
2023/01/19 04:47:55;;;;;;;30.15;19.58;;;10.10;99.90;;;;;;5115773;28;20212;-81
2023/01/19 04:50:20;;;;;;;31.13;19.87;;;10.20;99.90;;;;;;5116822;28;20538;-83
2023/01/19 04:52:47;;;;;;;27.77;18.23;;;10.30;99.90;;;;;;5117091;28;20187;-81
2023/01/19 04:55:13;;;;;;;33.63;21.05;;;10.30;99.90;;;;;;5116995;28;20223;-83
2023/01/19 04:57:39;;;;;;;33.53;21.25;;;10.40;99.90;;;;;;5117361;28;20723;-83
2023/01/19 05:00:06;;;;;;;29.90;18.63;;;10.40;99.90;;;;;;5117009;28;20206;-81
2023/01/19 05:02:32;;;;;;;32.10;19.58;;;10.40;99.90;;;;;;5115566;28;20248;-83
2023/01/19 05:04:58;;;;;;;27.63;18.90;;;10.40;99.90;;;;;;5115518;28;20236;-83
2023/01/19 05:07:24;;;;;;;33.77;20.50;;;10.40;99.90;;;;;;5115227;28;20207;-81
2023/01/19 05:09:50;;;;;;;25.83;18.13;;;10.50;99.90;;;;;;5116386;28;20423;-82
2023/01/19 05:12:16;;;;;;;30.13;19.73;;;10.40;99.90;;;;;;5115555;28;20212;-81
2023/01/19 05:14:42;;;;;;;29.58;19.13;;;10.50;99.90;;;;;;5116630;28;20251;-81
2023/01/19 05:17:08;;;;;;;29.67;18.67;;;10.50;99.90;;;;;;5115387;28;20280;-81
2023/01/19 05:19:34;;;;;;;27.92;18.10;;;10.50;99.90;;;;;;5115052;28;20195;-81
2023/01/19 05:22:02;;;;;;;29.17;19.13;;;10.50;99.90;;;;;;5116805;27;20184;-82
2023/01/19 05:24:28;;;;;;;32.42;19.90;;;10.50;99.90;;;;;;5105790;28;20433;-80
2023/01/19 05:26:54;;;;;;;38.13;22.10;;;10.50;99.90;;;;;;5102998;28;20199;-82
2023/01/19 05:29:19;;;;;;;34.10;19.00;;;10.50;99.90;;;;;;5098987;28;20203;-79
2023/01/19 05:31:45;;;;;;;28.00;16.93;;;10.50;99.90;;;;;;5113997;28;20403;-80
2023/01/19 05:34:11;;;;;;;27.77;17.13;;;10.40;99.90;;;;;;5114977;28;20223;-80
2023/01/19 05:36:36;;;;;;;28.83;16.40;;;10.40;99.90;;;;;;5108281;28;20184;-80
2023/01/19 05:39:03;;;;;;;27.50;17.03;;;10.40;99.90;;;;;;5106862;28;20620;-81
2023/01/19 05:41:29;;;;;;;30.48;16.83;;;10.30;99.90;;;;;;5095385;28;20176;-83
2023/01/19 05:43:55;;;;;;;27.23;15.93;;;10.30;99.90;;;;;;5099110;28;20192;-83
2023/01/19 05:46:20;;;;;;;26.87;16.27;;;10.30;99.90;;;;;;5101348;28;20515;-81
2023/01/19 05:48:46;;;;;;;25.40;15.37;;;10.20;99.90;;;;;;5095387;28;20555;-82
2023/01/19 05:51:12;;;;;;;22.43;13.50;;;10.20;99.90;;;;;;5094903;28;20229;-82
2023/01/19 05:53:37;;;;;;;26.83;13.50;;;10.20;99.90;;;;;;5097596;28;20439;-83
2023/01/19 05:56:07;;;;;;;15.63;11.23;;;10.20;99.90;;;;;;5115370;28;20273;-83
2023/01/19 05:58:34;;;;;;;17.23;11.43;;;10.10;99.90;;;;;;5109417;28;20287;-83
2023/01/19 06:01:04;;;;;;;16.75;10.43;;;10.00;99.90;;;;;;5097344;28;20643;-83
2023/01/19 06:03:31;;;;;;;16.38;10.70;;;9.90;99.90;;;;;;5095025;28;20241;-82
2023/01/19 06:05:58;;;;;;;15.05;9.90;;;9.90;99.90;;;;;;5102553;28;20185;-83
2023/01/19 06:08:24;;;;;;;19.02;11.05;;;10.00;99.90;;;;;;5092929;28;20209;-81
2023/01/19 06:10:49;;;;;;;16.10;11.23;;;10.00;99.90;;;;;;5103915;28;20183;-82
2023/01/19 06:13:16;;;;;;;18.50;10.90;;;10.10;99.90;;;;;;5110947;28;20975;-82
2023/01/19 06:15:43;;;;;;;17.45;10.40;;;10.20;99.90;;;;;;5094533;28;20181;-81
2023/01/19 06:18:15;;;;;;;14.70;10.27;;;10.10;99.90;;;;;;5105398;28;20206;-82
2023/01/19 06:20:41;;;;;;;17.85;10.07;;;10.00;99.90;;;;;;5109905;28;20671;-81
2023/01/19 06:23:07;;;;;;;16.17;10.37;;;9.90;99.90;;;;;;5109506;28;20192;-81
2023/01/19 06:25:33;;;;;;;18.50;11.20;;;9.80;99.90;;;;;;5109336;28;20420;-82
2023/01/19 06:27:59;;;;;;;15.93;10.67;;;9.80;99.90;;;;;;5110995;28;21015;-82
2023/01/19 06:30:25;;;;;;;17.53;10.67;;;9.90;99.90;;;;;;5105162;28;20186;-81
2023/01/19 06:32:52;;;;;;;19.42;11.70;;;9.90;99.90;;;;;;5108554;28;20477;-83
2023/01/19 06:35:18;;;;;;;20.55;12.57;;;9.80;99.90;;;;;;5088234;28;20665;-82
2023/01/19 06:37:43;;;;;;;17.07;11.67;;;9.80;99.90;;;;;;5088384;28;20233;-83
2023/01/19 06:40:10;;;;;;;14.60;10.70;;;9.80;99.90;;;;;;5087962;28;20504;-82
2023/01/19 06:42:36;;;;;;;19.50;12.80;;;9.80;99.90;;;;;;5095767;28;20667;-82
2023/01/19 06:45:02;;;;;;;17.30;11.57;;;9.80;99.90;;;;;;5088626;28;20172;-83
2023/01/19 06:47:28;;;;;;;11.47;8.50;;;9.80;99.90;;;;;;5088653;28;20189;-82
2023/01/19 06:49:53;;;;;;;11.67;8.07;;;9.80;99.90;;;;;;5087527;28;20503;-82
2023/01/19 06:52:19;;;;;;;10.50;8.07;;;9.80;99.90;;;;;;5092309;28;20223;-82
2023/01/19 06:54:45;;;;;;;13.77;9.43;;;9.80;99.90;;;;;;5097791;28;20203;-81
2023/01/19 06:57:12;;;;;;;10.90;8.05;;;9.70;99.90;;;;;;5096457;28;20251;-81
2023/01/19 06:59:37;;;;;;;10.20;7.80;;;9.60;99.90;;;;;;5104950;28;20640;-81
2023/01/19 07:02:03;;;;;;;12.53;8.40;;;9.60;99.90;;;;;;5100658;28;20183;-82
2023/01/19 07:04:29;;;;;;;11.40;8.55;;;9.60;99.90;;;;;;5091008;28;20412;-81
2023/01/19 07:06:55;;;;;;;12.80;9.07;;;9.60;99.90;;;;;;5087336;28;20192;-82
2023/01/19 07:09:21;;;;;;;12.90;8.90;;;9.50;99.90;;;;;;5088958;28;20204;-82
2023/01/19 07:11:47;;;;;;;10.00;7.67;;;9.50;99.90;;;;;;5108434;28;20180;-82
2023/01/19 07:14:12;;;;;;;11.40;7.95;;;9.50;99.90;;;;;;5108707;28;20453;-82
2023/01/19 07:16:38;;;;;;;10.77;8.43;;;9.50;99.90;;;;;;5094570;28;20219;-82
2023/01/19 07:19:04;;;;;;;10.10;9.00;;;9.50;99.90;;;;;;5072590;28;20208;-83
2023/01/19 07:21:29;;;;;;;26.83;18.00;;;9.50;99.90;;;;;;5072337;28;20184;-82
2023/01/19 07:23:56;;;;;;;60.40;53.43;;;9.50;99.90;;;;;;5071649;28;20277;-82
2023/01/19 07:26:23;;;;;;;51.88;41.25;;;9.40;99.90;;;;;;5071350;28;20184;-81
2023/01/19 07:28:50;;;;;;;16.52;12.48;;;9.40;99.90;;;;;;5072860;28;20295;-81
2023/01/19 07:31:16;;;;;;;13.27;10.20;;;9.30;99.90;;;;;;5070534;28;20177;-82
2023/01/19 07:33:42;;;;;;;11.40;8.80;;;9.30;99.90;;;;;;5070479;28;20226;-82
2023/01/19 07:36:08;;;;;;;9.57;8.00;;;9.30;99.90;;;;;;5073213;28;20184;-81
2023/01/19 07:38:34;;;;;;;9.15;7.75;;;9.20;99.90;;;;;;5073107;28;20911;-83
2023/01/19 07:41:05;;;;;;;9.90;7.77;;;9.20;99.90;;;;;;5070646;28;20192;-83
2023/01/19 07:43:31;;;;;;;9.98;7.60;;;9.20;99.90;;;;;;5068973;28;20196;-83
2023/01/19 07:45:58;;;;;;;11.82;8.05;;;9.10;99.90;;;;;;5070534;28;20653;-83
2023/01/19 07:48:24;;;;;;;10.43;7.70;;;9.10;99.90;;;;;;5071465;28;20759;-80
2023/01/19 07:50:50;;;;;;;9.70;7.90;;;9.10;99.90;;;;;;5070139;28;20226;-82
2023/01/19 07:53:16;;;;;;;10.33;8.10;;;9.10;99.90;;;;;;5072916;28;20199;-80
2023/01/19 07:55:42;;;;;;;9.17;7.77;;;9.20;99.90;;;;;;5069377;28;20282;-81
2023/01/19 07:58:07;;;;;;;8.75;7.13;;;9.20;99.90;;;;;;5069807;28;20444;-81
2023/01/19 08:00:35;;;;;;;8.07;6.90;;;9.10;99.90;;;;;;5071014;28;20198;-82
2023/01/19 08:03:03;;;;;;;10.45;7.20;;;9.20;99.90;;;;;;5075384;28;20560;-82
2023/01/19 08:05:28;;;;;;;8.63;6.40;;;9.20;99.90;;;;;;5072755;28;20181;-82
2023/01/19 08:07:59;;;;;;;8.83;6.67;;;9.10;99.90;;;;;;5074747;28;20227;-80
2023/01/19 08:10:26;;;;;;;10.38;7.90;;;9.20;99.90;;;;;;5074218;28;20233;-82
2023/01/19 08:12:53;;;;;;;10.02;7.88;;;9.20;99.90;;;;;;5074437;28;20196;-83
2023/01/19 08:15:21;;;;;;;9.88;7.43;;;9.20;99.90;;;;;;5073638;28;20561;-82
2023/01/19 08:17:57;;;;;;;9.40;7.55;;;9.20;99.90;;;;;;5070748;28;21048;-82
2023/01/19 08:20:23;;;;;;;12.52;8.00;;;9.20;99.90;;;;;;5072114;28;20226;-82
2023/01/19 08:22:49;;;;;;;8.60;7.15;;;9.10;99.90;;;;;;5073898;28;20281;-84
2023/01/19 08:25:14;;;;;;;10.13;7.70;;;9.10;99.90;;;;;;5068879;28;20201;-84
2023/01/19 08:27:40;;;;;;;11.47;7.90;;;9.10;99.90;;;;;;5070967;28;20203;-83
2023/01/19 08:30:06;;;;;;;8.57;7.57;;;9.10;99.90;;;;;;5069731;28;20226;-82
2023/01/19 08:32:32;;;;;;;13.73;7.38;;;9.10;99.90;;;;;;5069646;28;20199;-83
2023/01/19 08:34:57;;;;;;;9.20;7.60;;;9.10;99.90;;;;;;5075937;28;20914;-84
2023/01/19 08:37:23;;;;;;;9.07;6.97;;;9.10;99.90;;;;;;5076749;28;20369;-85
2023/01/19 08:39:49;;;;;;;11.60;8.70;;;9.10;99.90;;;;;;5073955;28;20184;-84
2023/01/19 08:42:15;;;;;;;27.40;19.00;;;9.10;99.90;;;;;;5073848;28;21021;-83
2023/01/19 08:44:40;;;;;;;25.67;15.27;;;9.10;99.90;;;;;;5072867;28;20498;-83
2023/01/19 08:47:07;;;;;;;35.43;18.37;;;9.10;99.90;;;;;;5072048;28;20584;-84
2023/01/19 08:49:34;;;;;;;26.55;14.57;;;9.10;99.90;;;;;;5071981;28;20451;-83
2023/01/19 08:52:01;;;;;;;9.05;7.43;;;9.10;99.90;;;;;;5070748;28;20189;-84
2023/01/19 08:54:27;;;;;;;9.50;7.00;;;9.10;99.90;;;;;;5072625;28;20480;-84
2023/01/19 08:56:53;;;;;;;10.03;7.80;;;9.20;99.90;;;;;;5072298;28;20575;-84
2023/01/19 08:59:18;;;;;;;9.50;8.07;;;9.20;99.90;;;;;;5070638;28;20679;-83
2023/01/19 09:01:44;;;;;;;10.40;8.20;;;9.20;99.90;;;;;;5069644;28;20398;-84
2023/01/19 09:04:10;;;;;;;23.83;16.57;;;9.30;99.90;;;;;;5070933;27;20200;-83
2023/01/19 09:06:36;;;;;;;16.60;11.60;;;9.20;99.90;;;;;;5068226;28;20222;-84
2023/01/19 09:09:01;;;;;;;37.93;21.97;;;9.30;99.90;;;;;;5069217;28;20659;-83
2023/01/19 09:11:27;;;;;;;18.93;12.40;;;9.20;99.90;;;;;;5070308;28;20188;-83
2023/01/19 09:13:53;;;;;;;26.43;16.07;;;9.20;99.90;;;;;;5071518;28;20358;-82
2023/01/19 09:16:19;;;;;;;42.00;25.50;;;9.20;99.90;;;;;;5071652;28;20239;-85
2023/01/19 09:18:44;;;;;;;18.43;14.17;;;9.10;99.90;;;;;;5070602;28;20589;-83
2023/01/19 09:21:10;;;;;;;14.63;12.93;;;9.10;99.90;;;;;;5069575;28;20299;-82
2023/01/19 09:23:36;;;;;;;15.90;12.20;;;9.10;99.90;;;;;;5068087;28;20350;-84
2023/01/19 09:26:04;;;;;;;15.57;13.87;;;9.10;99.90;;;;;;5074710;28;20564;-83
2023/01/19 09:28:29;;;;;;;13.63;10.90;;;9.10;99.90;;;;;;5090763;28;20239;-84
2023/01/19 09:30:55;;;;;;;14.70;11.20;;;9.10;99.90;;;;;;5105731;28;20199;-83
2023/01/19 09:33:21;;;;;;;10.40;8.80;;;9.10;99.90;;;;;;5097782;28;20448;-83
2023/01/19 09:35:49;;;;;;;8.97;6.97;;;9.20;99.90;;;;;;5093101;28;20574;-83
2023/01/19 09:38:15;;;;;;;10.20;7.55;;;9.20;99.90;;;;;;5105538;28;20863;-83
2023/01/19 09:40:50;;;;;;;8.88;7.93;;;9.20;99.90;;;;;;5101959;28;20210;-84
2023/01/19 09:43:41;;;;;;;7.85;6.72;;;9.20;99.90;;;;;;5101177;28;20218;-84
2023/01/19 09:46:21;;;;;;;10.25;7.85;;;9.10;99.90;;;;;;5097277;28;20269;-83
2023/01/19 09:48:51;;;;;;;9.13;8.05;;;9.20;99.90;;;;;;5095439;28;20708;-85
2023/01/19 09:51:18;;;;;;;14.40;12.38;;;9.20;99.90;;;;;;5090613;28;20326;-85
2023/01/19 09:53:59;;;;;;;12.98;10.70;;;9.20;99.90;;;;;;5097361;28;20379;-85
2023/01/19 09:56:28;;;;;;;10.63;7.85;;;9.20;99.90;;;;;;5097103;28;20226;-84
2023/01/19 09:58:53;;;;;;;12.30;10.00;;;9.10;99.90;;;;;;5109627;28;20533;-84
2023/01/19 10:01:19;;;;;;;11.00;8.93;;;9.20;99.90;;;;;;5106293;28;20195;-86
2023/01/19 10:03:49;;;;;;;13.43;9.73;;;9.20;99.90;;;;;;5101428;28;20223;-84
2023/01/19 10:06:16;;;;;;;9.85;6.65;;;9.20;99.90;;;;;;5101755;28;20655;-85
2023/01/19 10:08:50;;;;;;;6.75;6.03;;;9.10;99.90;;;;;;5088580;28;20222;-85
2023/01/19 10:11:29;;;;;;;8.60;6.95;;;9.20;99.90;;;;;;5091412;28;20186;-84
2023/01/19 10:13:56;;;;;;;8.45;6.63;;;9.20;99.90;;;;;;5091933;28;20261;-84
2023/01/19 10:16:48;;;;;;;8.23;7.05;;;9.20;99.90;;;;;;5099112;28;20213;-86
2023/01/19 10:19:21;;;;;;;7.65;6.85;;;9.30;99.90;;;;;;5104089;28;20189;-85
2023/01/19 10:21:50;;;;;;;9.60;7.80;;;9.30;99.90;;;;;;5100127;28;20660;-84
2023/01/19 10:24:35;;;;;;;13.35;9.40;;;9.20;99.90;;;;;;5091165;28;20823;-85
2023/01/19 10:27:01;;;;;;;14.93;10.32;;;9.20;99.90;;;;;;5090111;28;20260;-85
2023/01/19 10:29:37;;;;;;;7.95;7.00;;;9.20;99.90;;;;;;5097098;28;20604;-85
2023/01/19 10:32:12;;;;;;;10.80;7.25;;;9.20;99.90;;;;;;5100159;28;20184;-85
2023/01/19 10:34:40;;;;;;;9.52;6.88;;;9.10;99.90;;;;;;5102263;28;20171;-85
2023/01/19 10:37:32;;;;;;;6.20;5.25;;;9.10;99.90;;;;;;5105187;28;20172;-84
2023/01/19 10:40:27;;;;;;;7.63;5.35;;;9.10;99.90;;;;;;5091663;28;20567;-85
2023/01/19 10:42:53;;;;;;;6.03;5.43;;;9.20;99.90;;;;;;5086859;28;20684;-84
2023/01/19 10:45:22;;;;;;;7.60;6.60;;;9.20;99.90;;;;;;5090569;28;20187;-86
2023/01/19 10:47:48;;;;;;;9.82;8.13;;;9.20;99.90;;;;;;5089941;28;20670;-84
2023/01/19 10:50:27;;;;;;;8.48;7.68;;;9.20;99.90;;;;;;5105704;28;20190;-85
2023/01/19 10:52:59;;;;;;;11.65;8.23;;;9.20;99.90;;;;;;5107583;28;20195;-85
2023/01/19 10:55:28;;;;;;;9.00;8.05;;;9.10;99.90;;;;;;5107872;28;20322;-85
2023/01/19 10:57:55;;;;;;;9.18;7.68;;;9.10;99.90;;;;;;5094291;28;20619;-85
2023/01/19 11:00:37;;;;;;;29.48;18.23;;;9.10;99.90;;;;;;5106208;28;20655;-84
2023/01/19 11:03:23;;;;;;;16.58;13.13;;;9.10;99.90;;;;;;5108126;28;20740;-84
2023/01/19 11:05:48;;;;;;;10.98;8.45;;;9.00;99.90;;;;;;5102227;28;20180;-84
2023/01/19 11:08:27;;;;;;;26.23;20.80;;;9.00;99.90;;;;;;5106116;28;20657;-85
2023/01/19 11:11:04;;;;;;;13.40;12.00;;;8.90;99.90;;;;;;5089938;28;20657;-84
2023/01/19 11:13:30;;;;;;;9.27;8.32;;;8.90;99.90;;;;;;5099585;28;20203;-83
2023/01/19 11:16:26;;;;;;;14.23;10.50;;;8.80;99.90;;;;;;5094442;28;20279;-85
2023/01/19 11:18:55;;;;;;;10.02;7.30;;;8.70;99.90;;;;;;5088359;28;20995;-83
2023/01/19 11:21:25;;;;;;;9.75;7.25;;;8.70;99.90;;;;;;5093839;28;20191;-84
2023/01/19 11:23:54;;;;;;;18.52;12.85;;;8.60;99.90;;;;;;5095374;28;20235;-86
2023/01/19 11:26:39;;;;;;;12.50;10.23;;;8.60;99.90;;;;;;5093510;28;20539;-86
2023/01/19 11:29:13;;;;;;;10.82;7.88;;;8.50;99.90;;;;;;5101266;28;20223;-85
2023/01/19 11:31:39;;;;;;;11.48;8.23;;;8.50;99.90;;;;;;5104694;28;20180;-85
2023/01/19 11:34:21;;;;;;;17.05;12.23;;;8.40;99.90;;;;;;5091869;28;20204;-85
2023/01/19 11:36:57;;;;;;;15.82;10.77;;;8.30;99.90;;;;;;5092198;28;20262;-86
2023/01/19 11:39:26;;;;;;;9.63;7.00;;;8.20;99.90;;;;;;5093320;28;20182;-82
2023/01/19 11:42:03;;;;;;;9.07;6.20;;;8.20;99.90;;;;;;5092005;28;20202;-85
2023/01/19 11:44:31;;;;;;;9.70;7.20;;;8.00;99.90;;;;;;5094026;28;20233;-85
2023/01/19 11:47:04;;;;;;;16.20;11.07;;;8.00;99.90;;;;;;5094519;28;20668;-86
2023/01/19 11:49:38;;;;;;;7.03;6.35;;;8.00;99.90;;;;;;5094403;28;20286;-82
2023/01/19 11:52:33;;;;;;;5.47;4.53;;;7.90;99.90;;;;;;5091581;28;20190;-85
2023/01/19 11:55:05;;;;;;;5.22;4.72;;;7.80;99.90;;;;;;5097966;28;20630;-82
2023/01/19 11:57:30;;;;;;;4.70;4.28;;;7.70;99.90;;;;;;5101031;28;20196;-85
2023/01/19 12:00:02;;;;;;;5.90;4.60;;;7.70;99.90;;;;;;5099215;28;20255;-82
2023/01/19 12:02:35;;;;;;;5.53;4.93;;;7.70;99.90;;;;;;5094964;28;20669;-82
2023/01/19 12:05:09;;;;;;;5.82;4.93;;;7.70;99.90;;;;;;5098842;28;20625;-82
2023/01/19 12:07:36;;;;;;;6.50;4.90;;;7.70;99.90;;;;;;5099138;28;20239;-84
2023/01/19 12:10:12;;;;;;;5.85;5.00;;;7.70;99.90;;;;;;5098533;28;20188;-84
2023/01/19 12:12:40;;;;;;;6.18;5.55;;;7.70;99.90;;;;;;5098805;28;20211;-82
2023/01/19 12:15:17;;;;;;;6.35;4.95;;;7.70;99.90;;;;;;5094824;28;20172;-85
2023/01/19 12:17:47;;;;;;;6.13;4.10;;;7.70;99.90;;;;;;5099882;28;20211;-82
2023/01/19 12:20:25;;;;;;;4.07;3.67;;;7.70;99.90;;;;;;5105356;28;20612;-82
2023/01/19 12:23:09;;;;;;;4.72;4.00;;;7.70;99.90;;;;;;5100741;28;20195;-86
2023/01/19 12:25:50;;;;;;;4.25;3.85;;;7.70;99.90;;;;;;5109166;28;20184;-87
2023/01/19 12:28:16;;;;;;;4.43;3.85;;;7.70;99.90;;;;;;5106677;28;20610;-82
2023/01/19 12:30:43;;;;;;;5.20;4.25;;;7.80;99.90;;;;;;5093350;28;20175;-82
2023/01/19 12:33:36;;;;;;;5.68;4.53;;;7.80;99.90;;;;;;5107910;28;20677;-82
2023/01/19 12:36:35;;;;;;;6.20;5.00;;;7.90;99.90;;;;;;5090341;28;20717;-86
2023/01/19 12:39:03;;;;;;;5.30;4.80;;;8.00;99.90;;;;;;5085022;28;20207;-87
2023/01/19 12:41:36;;;;;;;6.65;5.97;;;8.10;99.90;;;;;;5100516;28;20187;-86
2023/01/19 12:44:11;;;;;;;7.18;5.97;;;8.00;99.90;;;;;;5097294;28;20198;-85
2023/01/19 12:46:45;;;;;;;6.75;5.65;;;8.00;99.90;;;;;;5088557;28;20215;-87
2023/01/19 12:49:17;;;;;;;12.32;7.95;;;7.90;99.90;;;;;;5092107;28;20223;-86
2023/01/19 12:51:43;;;;;;;10.30;7.95;;;7.90;99.90;;;;;;5091585;28;20628;-86
2023/01/19 12:54:38;;;;;;;9.10;7.65;;;7.90;99.90;;;;;;5096629;28;20214;-86
2023/01/19 12:57:29;;;;;;;8.85;7.20;;;7.90;99.90;;;;;;5095843;28;20731;-87
2023/01/19 12:59:57;;;;;;;13.57;8.35;;;7.80;99.90;;;;;;5099822;28;20176;-86
2023/01/19 13:02:23;;;;;;;16.65;12.35;;;7.70;99.90;;;;;;5103911;28;20660;-86
2023/01/19 13:05:22;;;;;;;17.47;12.30;;;7.70;99.90;;;;;;5110024;28;20254;-81
2023/01/19 13:08:06;;;;;;;18.80;13.20;;;7.50;99.90;;;;;;5105034;28;20195;-82